createdAt,value
2017-04-13T00:00:37.582Z,0
2017-04-13T00:01:46.794Z,0
2017-04-13T00:02:55.827Z,0
2017-04-13T00:04:05.037Z,0
2017-04-13T00:05:13.919Z,0
2017-04-13T00:06:22.809Z,0
2017-04-13T00:07:31.696Z,0
2017-04-13T00:08:40.957Z,0
2017-04-13T00:09:50.169Z,0
2017-04-13T00:10:59.069Z,0
2017-04-13T00:12:07.998Z,0
2017-04-13T00:13:16.886Z,0
2017-04-13T00:14:26.250Z,0
2017-04-13T00:15:35.136Z,0
2017-04-13T00:16:44.671Z,0
2017-04-13T00:17:53.558Z,0
2017-04-13T00:19:02.767Z,0
2017-04-13T00:20:12.326Z,0
2017-04-13T00:21:21.540Z,0
2017-04-13T00:22:30.424Z,0
2017-04-13T00:23:39.633Z,0
2017-04-13T00:24:48.841Z,0
2017-04-13T00:25:58.524Z,0
2017-04-13T00:27:07.409Z,0
2017-04-13T00:28:16.626Z,0
2017-04-13T00:29:25.838Z,0
2017-04-13T00:30:34.721Z,0
2017-04-13T00:31:43.755Z,0
2017-04-13T00:32:52.967Z,0
2017-04-13T00:34:02.178Z,0
2017-04-13T00:35:11.065Z,0
2017-04-13T00:36:19.951Z,0
2017-04-13T00:37:29.311Z,0
2017-04-13T00:38:38.848Z,0
2017-04-13T00:39:48.057Z,0
2017-04-13T00:40:57.914Z,0
2017-04-13T00:42:06.802Z,0
2017-04-13T00:43:16.491Z,0
2017-04-13T00:44:26.026Z,0
2017-04-13T00:45:35.240Z,0
2017-04-13T00:46:44.455Z,0
2017-04-13T00:47:53.354Z,0
2017-04-13T00:49:02.614Z,0
2017-04-13T00:50:12.149Z,0
2017-04-13T00:51:21.364Z,0
2017-04-13T00:52:30.579Z,0
2017-04-13T00:53:39.796Z,0
2017-04-13T00:54:48.830Z,0
2017-04-13T00:55:58.038Z,0
2017-04-13T00:57:06.930Z,0
2017-04-13T00:58:16.791Z,0
2017-04-13T00:59:26.000Z,0
2017-04-13T01:00:35.688Z,0
2017-04-13T01:01:44.897Z,0
2017-04-13T01:02:54.107Z,0
2017-04-13T01:04:02.991Z,0
2017-04-13T01:05:12.205Z,0
2017-04-13T01:06:21.518Z,0
2017-04-13T01:07:30.411Z,0
2017-04-13T01:08:39.335Z,0
2017-04-13T01:09:48.545Z,0
2017-04-13T01:10:57.752Z,0
2017-04-13T01:12:06.792Z,0
2017-04-13T01:13:16.004Z,0
2017-04-13T01:14:24.886Z,0
2017-04-13T01:15:33.773Z,0
2017-04-13T01:16:42.983Z,0
2017-04-13T01:17:52.202Z,0
2017-04-13T01:19:01.084Z,0
2017-04-13T01:20:09.972Z,0
2017-04-13T01:21:18.868Z,0
2017-04-13T01:22:28.401Z,0
2017-04-13T01:23:38.238Z,0
2017-04-13T01:24:47.452Z,0
2017-04-13T01:25:56.660Z,0
2017-04-13T01:27:05.600Z,0
2017-04-13T01:28:15.465Z,0
2017-04-13T01:29:24.825Z,0
2017-04-13T01:30:34.033Z,0
2017-04-13T01:31:42.955Z,0
2017-04-13T01:32:52.495Z,0
2017-04-13T01:34:01.717Z,0
2017-04-13T01:35:11.307Z,0
2017-04-13T01:36:21.169Z,0
2017-04-13T01:37:30.707Z,0
2017-04-13T01:38:39.921Z,0
2017-04-13T01:39:49.473Z,0
2017-04-13T01:40:58.933Z,0
2017-04-13T01:42:07.825Z,0
2017-04-13T01:43:17.357Z,0
2017-04-13T01:44:26.570Z,0
2017-04-13T01:45:35.451Z,0
2017-04-13T01:46:44.688Z,0
2017-04-13T01:47:53.575Z,0
2017-04-13T01:49:02.462Z,0
2017-04-13T01:50:11.354Z,0
2017-04-13T01:51:20.893Z,0
2017-04-13T01:52:30.254Z,0
2017-04-13T01:53:40.128Z,0
2017-04-13T01:54:49.339Z,0
2017-04-13T01:55:58.555Z,0
2017-04-13T01:57:07.440Z,0
2017-04-13T01:58:16.381Z,0
2017-04-13T01:59:25.594Z,0
2017-04-13T02:00:34.808Z,0
2017-04-13T02:01:44.017Z,0
2017-04-13T02:02:52.897Z,0
2017-04-13T02:04:02.264Z,0
2017-04-13T02:05:11.825Z,0
2017-04-13T02:06:20.706Z,0
2017-04-13T02:07:29.963Z,0
2017-04-13T02:08:39.180Z,0
2017-04-13T02:09:48.538Z,0
2017-04-13T02:10:57.422Z,0
2017-04-13T02:12:06.308Z,0
2017-04-13T02:13:15.882Z,0
2017-04-13T02:14:25.106Z,0
2017-04-13T02:15:33.990Z,0
2017-04-13T02:16:43.525Z,0
2017-04-13T02:17:52.748Z,0
2017-04-13T02:19:02.606Z,0
2017-04-13T02:20:11.814Z,0
2017-04-13T02:21:21.453Z,0
2017-04-13T02:22:30.346Z,0
2017-04-13T02:23:39.880Z,0
2017-04-13T02:24:49.103Z,0
2017-04-13T02:25:57.999Z,0
2017-04-13T02:27:07.410Z,0
2017-04-13T02:28:16.614Z,0
2017-04-13T02:29:25.826Z,0
2017-04-13T02:30:35.040Z,0
2017-04-13T02:31:43.932Z,0
2017-04-13T02:32:52.867Z,0
2017-04-13T02:34:01.764Z,0
2017-04-13T02:35:10.654Z,0
2017-04-13T02:36:19.542Z,0
2017-04-13T02:37:28.755Z,0
2017-04-13T02:38:37.936Z,0
2017-04-13T02:39:46.829Z,0
2017-04-13T02:40:55.716Z,0
2017-04-13T02:42:04.926Z,0
2017-04-13T02:43:14.142Z,0
2017-04-13T02:44:23.084Z,0
2017-04-13T02:45:32.621Z,0
2017-04-13T02:46:41.831Z,0
2017-04-13T02:47:50.719Z,0
2017-04-13T02:48:59.935Z,0
2017-04-13T02:50:09.074Z,0
2017-04-13T02:51:18.011Z,0
2017-04-13T02:52:26.901Z,0
2017-04-13T02:53:36.122Z,0
2017-04-13T02:54:45.654Z,0
2017-04-13T02:55:54.685Z,0
2017-04-13T02:57:03.569Z,0
2017-04-13T02:58:12.455Z,0
2017-04-13T02:59:21.339Z,0
2017-04-13T03:00:30.237Z,0
2017-04-13T03:01:39.171Z,0
2017-04-13T03:02:48.381Z,0
2017-04-13T03:03:57.267Z,0
2017-04-13T03:05:06.480Z,0
2017-04-13T03:06:15.367Z,0
2017-04-13T03:07:24.403Z,0
2017-04-13T03:08:33.612Z,0
2017-04-13T03:09:42.888Z,0
2017-04-13T03:10:51.776Z,0
2017-04-13T03:12:00.990Z,0
2017-04-13T03:13:10.453Z,0
2017-04-13T03:14:20.337Z,0
2017-04-13T03:15:29.548Z,0
2017-04-13T03:16:38.445Z,0
2017-04-13T03:17:47.659Z,0
2017-04-13T03:18:57.630Z,0
2017-04-13T03:20:06.845Z,0
2017-04-13T03:21:16.055Z,0
2017-04-13T03:22:24.942Z,0
2017-04-13T03:23:34.491Z,0
2017-04-13T03:24:43.808Z,0
2017-04-13T03:25:53.018Z,0
2017-04-13T03:27:01.903Z,0
2017-04-13T03:28:11.119Z,0
2017-04-13T03:29:20.025Z,0
2017-04-13T03:30:29.159Z,0
2017-04-13T03:31:38.058Z,0
2017-04-13T03:32:46.941Z,0
2017-04-13T03:33:56.153Z,0
2017-04-13T03:35:05.362Z,0
2017-04-13T03:36:14.722Z,0
2017-04-13T03:37:23.931Z,0
2017-04-13T03:38:33.145Z,0
2017-04-13T03:39:42.029Z,0
2017-04-13T03:40:51.563Z,0
2017-04-13T03:42:01.032Z,0
2017-04-13T03:43:09.919Z,0
2017-04-13T03:44:19.131Z,0
2017-04-13T03:45:28.339Z,0
2017-04-13T03:46:37.225Z,0
2017-04-13T03:47:46.650Z,0
2017-04-13T03:48:55.533Z,0
2017-04-13T03:50:04.744Z,0
2017-04-13T03:51:13.637Z,0
2017-04-13T03:52:22.526Z,0
2017-04-13T03:53:31.983Z,0
2017-04-13T03:54:41.521Z,0
2017-04-13T03:55:50.733Z,0
2017-04-13T03:56:59.619Z,0
2017-04-13T03:58:08.829Z,0
2017-04-13T03:59:18.101Z,0
2017-04-13T04:00:27.646Z,0
2017-04-13T04:01:36.858Z,0
2017-04-13T04:02:45.751Z,0
2017-04-13T04:03:54.638Z,0
2017-04-13T04:05:03.707Z,0
2017-04-13T04:06:12.597Z,0
2017-04-13T04:07:21.526Z,0
2017-04-13T04:08:30.466Z,0
2017-04-13T04:09:39.347Z,0
2017-04-13T04:10:48.532Z,0
2017-04-13T04:11:57.421Z,0
2017-04-13T04:13:06.309Z,0
2017-04-13T04:14:15.518Z,0
2017-04-13T04:15:24.728Z,0
2017-04-13T04:16:33.609Z,0
2017-04-13T04:17:42.830Z,0
2017-04-13T04:18:51.716Z,0
2017-04-13T04:20:00.596Z,0
2017-04-13T04:21:09.535Z,0
2017-04-13T04:22:19.286Z,0
2017-04-13T04:23:28.492Z,0
2017-04-13T04:24:37.390Z,0
2017-04-13T04:25:46.278Z,0
2017-04-13T04:26:55.166Z,0
2017-04-13T04:28:04.865Z,0
2017-04-13T04:29:13.749Z,0
2017-04-13T04:30:22.631Z,0
2017-04-13T04:31:31.843Z,0
2017-04-13T04:32:40.727Z,0
2017-04-13T04:33:49.949Z,0
2017-04-13T04:34:58.832Z,0
2017-04-13T04:36:07.722Z,0
2017-04-13T04:37:16.608Z,0
2017-04-13T04:38:25.492Z,0
2017-04-13T04:39:34.432Z,0
2017-04-13T04:40:43.321Z,0
2017-04-13T04:41:52.202Z,5
2017-04-13T04:43:01.414Z,10
2017-04-13T04:44:10.627Z,10
2017-04-13T04:45:19.883Z,15
2017-04-13T04:46:28.772Z,15
2017-04-13T04:47:37.657Z,20
2017-04-13T04:48:46.540Z,20
2017-04-13T04:49:55.421Z,20
2017-04-13T04:51:04.615Z,20
2017-04-13T04:52:13.870Z,20
2017-04-13T04:53:22.755Z,25
2017-04-13T04:54:31.639Z,25
2017-04-13T04:55:41.181Z,30
2017-04-13T04:56:50.439Z,35
2017-04-13T04:57:59.325Z,35
2017-04-13T04:59:08.895Z,35
2017-04-13T05:00:18.129Z,35
2017-04-13T05:01:27.017Z,40
2017-04-13T05:02:36.335Z,45
2017-04-13T05:03:45.223Z,45
2017-04-13T05:04:54.112Z,50
2017-04-13T05:06:03.006Z,50
2017-04-13T05:07:11.893Z,50
2017-04-13T05:08:21.581Z,50
2017-04-13T05:09:30.475Z,55
2017-04-13T05:10:39.362Z,55
2017-04-13T05:11:48.244Z,60
2017-04-13T05:12:57.455Z,60
2017-04-13T05:14:06.396Z,60
2017-04-13T05:15:15.284Z,65
2017-04-13T05:16:24.167Z,70
2017-04-13T05:17:33.375Z,70
2017-04-13T05:18:42.583Z,70
2017-04-13T05:19:51.617Z,75
2017-04-13T05:21:00.510Z,75
2017-04-13T05:22:09.723Z,80
2017-04-13T05:23:18.609Z,85
2017-04-13T05:24:27.495Z,85
2017-04-13T05:25:36.531Z,90
2017-04-13T05:26:45.422Z,90
2017-04-13T05:27:54.635Z,95
2017-04-13T05:29:03.847Z,95
2017-04-13T05:30:13.056Z,100
2017-04-13T05:31:22.007Z,100
2017-04-13T05:32:30.896Z,100
2017-04-13T05:33:39.786Z,100
2017-04-13T05:34:49.321Z,105
2017-04-13T05:35:58.858Z,100
2017-04-13T05:37:07.997Z,105
2017-04-13T05:38:17.209Z,115
2017-04-13T05:39:26.098Z,115
2017-04-13T05:40:34.993Z,110
2017-04-13T05:41:43.880Z,110
2017-04-13T05:42:53.340Z,110
2017-04-13T05:44:02.551Z,110
2017-04-13T05:45:11.439Z,110
2017-04-13T05:46:20.969Z,115
2017-04-13T05:47:29.862Z,115
2017-04-13T05:48:38.898Z,115
2017-04-13T05:49:47.784Z,115
2017-04-13T05:50:56.669Z,120
2017-04-13T05:52:05.558Z,125
2017-04-13T05:53:14.445Z,135
2017-04-13T05:54:24.035Z,140
2017-04-13T05:55:32.924Z,155
2017-04-13T05:56:41.806Z,160
2017-04-13T05:57:51.351Z,170
2017-04-13T05:59:00.238Z,170
2017-04-13T06:00:09.597Z,160
2017-04-13T06:01:19.137Z,145
2017-04-13T06:02:28.024Z,150
2017-04-13T06:03:36.918Z,155
2017-04-13T06:04:46.125Z,150
2017-04-13T06:05:55.167Z,150
2017-04-13T06:07:04.055Z,155
2017-04-13T06:08:13.604Z,175
2017-04-13T06:09:22.492Z,185
2017-04-13T06:10:31.393Z,185
2017-04-13T06:11:40.725Z,175
2017-04-13T06:12:49.609Z,160
2017-04-13T06:13:58.495Z,155
2017-04-13T06:15:07.383Z,170
2017-04-13T06:16:16.605Z,180
2017-04-13T06:17:25.970Z,175
2017-04-13T06:18:35.219Z,165
2017-04-13T06:19:44.767Z,150
2017-04-13T06:20:53.652Z,145
2017-04-13T06:22:02.546Z,160
2017-04-13T06:23:11.684Z,155
2017-04-13T06:24:20.897Z,150
2017-04-13T06:25:30.434Z,155
2017-04-13T06:26:39.324Z,160
2017-04-13T06:27:48.218Z,170
2017-04-13T06:28:57.254Z,185
2017-04-13T06:30:06.135Z,190
2017-04-13T06:31:15.031Z,200
2017-04-13T06:32:24.568Z,205
2017-04-13T06:33:33.456Z,215
2017-04-13T06:34:43.067Z,205
2017-04-13T06:35:52.290Z,185
2017-04-13T06:37:01.181Z,160
2017-04-13T06:38:10.066Z,145
2017-04-13T06:39:19.276Z,145
2017-04-13T06:40:28.364Z,145
2017-04-13T06:41:37.571Z,145
2017-04-13T06:42:46.458Z,155
2017-04-13T06:43:55.346Z,160
2017-04-13T06:45:04.555Z,165
2017-04-13T06:46:13.604Z,160
2017-04-13T06:47:22.498Z,165
2017-04-13T06:48:31.389Z,180
2017-04-13T06:49:40.281Z,160
2017-04-13T06:50:49.173Z,160
2017-04-13T06:51:58.466Z,160
2017-04-13T06:53:07.350Z,160
2017-04-13T06:54:16.282Z,160
2017-04-13T06:55:25.536Z,165
2017-04-13T06:56:34.755Z,165
2017-04-13T06:57:44.493Z,165
2017-04-13T06:58:53.383Z,165
2017-04-13T07:00:02.267Z,165
2017-04-13T07:01:11.478Z,170
2017-04-13T07:02:20.693Z,165
2017-04-13T07:03:29.783Z,165
2017-04-13T07:04:38.729Z,170
2017-04-13T07:05:47.617Z,170
2017-04-13T07:06:56.834Z,175
2017-04-13T07:08:05.734Z,180
2017-04-13T07:09:15.244Z,180
2017-04-13T07:10:24.131Z,175
2017-04-13T07:11:33.064Z,170
2017-04-13T07:12:41.962Z,180
2017-04-13T07:13:50.861Z,190
2017-04-13T07:14:59.801Z,180
2017-04-13T07:16:09.023Z,185
2017-04-13T07:17:17.915Z,195
2017-04-13T07:18:26.809Z,205
2017-04-13T07:19:35.701Z,230
2017-04-13T07:20:45.394Z,220
2017-04-13T07:21:54.290Z,210
2017-04-13T07:23:03.176Z,235
2017-04-13T07:24:12.062Z,255
2017-04-13T07:25:21.280Z,225
2017-04-13T07:26:30.973Z,240
2017-04-13T07:27:40.184Z,345
2017-04-13T07:28:49.077Z,295
2017-04-13T07:29:57.967Z,240
2017-04-13T07:31:06.868Z,225
2017-04-13T07:32:15.915Z,230
2017-04-13T07:33:24.835Z,295
2017-04-13T07:34:34.046Z,260
2017-04-13T07:35:42.932Z,245
2017-04-13T07:36:51.825Z,310
2017-04-13T07:38:00.763Z,295
2017-04-13T07:39:09.654Z,255
2017-04-13T07:40:18.544Z,295
2017-04-13T07:41:27.761Z,230
2017-04-13T07:42:36.657Z,235
2017-04-13T07:43:45.799Z,280
2017-04-13T07:44:54.729Z,285
2017-04-13T07:46:03.620Z,270
2017-04-13T07:47:12.514Z,235
2017-04-13T07:48:21.402Z,300
2017-04-13T07:49:30.542Z,320
2017-04-13T07:50:39.428Z,300
2017-04-13T07:51:48.640Z,285
2017-04-13T07:52:57.531Z,280
2017-04-13T07:54:06.423Z,285
2017-04-13T07:55:15.414Z,275
2017-04-13T07:56:24.303Z,290
2017-04-13T07:57:33.840Z,300
2017-04-13T07:58:42.762Z,345
2017-04-13T07:59:51.662Z,415
2017-04-13T08:01:00.853Z,385
2017-04-13T08:02:09.751Z,375
2017-04-13T08:03:18.636Z,410
2017-04-13T08:04:27.849Z,395
2017-04-13T08:05:37.074Z,335
2017-04-13T08:06:46.116Z,310
2017-04-13T08:07:55.353Z,285
2017-04-13T08:09:04.253Z,285
2017-04-13T08:10:13.468Z,290
2017-04-13T08:11:22.687Z,295
2017-04-13T08:12:31.627Z,325
2017-04-13T08:13:40.515Z,370
2017-04-13T08:14:49.405Z,385
2017-04-13T08:15:58.312Z,320
2017-04-13T08:17:07.531Z,270
2017-04-13T08:18:16.795Z,215
2017-04-13T08:19:25.684Z,170
2017-04-13T08:20:34.898Z,140
2017-04-13T08:21:44.441Z,150
2017-04-13T08:22:53.328Z,140
2017-04-13T08:24:02.373Z,135
2017-04-13T08:25:11.267Z,160
2017-04-13T08:26:20.161Z,165
2017-04-13T08:27:29.386Z,205
2017-04-13T08:28:39.315Z,280
2017-04-13T08:29:48.367Z,290
2017-04-13T08:30:57.263Z,315
2017-04-13T08:32:06.476Z,350
2017-04-13T08:33:16.013Z,410
2017-04-13T08:34:24.899Z,435
2017-04-13T08:35:33.889Z,440
2017-04-13T08:36:43.101Z,425
2017-04-13T08:37:51.987Z,425
2017-04-13T08:39:00.876Z,410
2017-04-13T08:40:09.769Z,390
2017-04-13T08:41:18.809Z,340
2017-04-13T08:42:28.031Z,260
2017-04-13T08:43:36.935Z,205
2017-04-13T08:44:46.161Z,200
2017-04-13T08:45:55.393Z,200
2017-04-13T08:47:04.443Z,240
2017-04-13T08:48:13.344Z,240
2017-04-13T08:49:22.244Z,240
2017-04-13T08:50:31.148Z,240
2017-04-13T08:51:40.390Z,245
2017-04-13T08:52:49.435Z,260
2017-04-13T08:53:58.341Z,240
2017-04-13T08:55:07.231Z,255
2017-04-13T08:56:16.123Z,290
2017-04-13T08:57:25.012Z,295
2017-04-13T08:58:34.050Z,325
2017-04-13T08:59:42.938Z,370
2017-04-13T09:00:51.847Z,280
2017-04-13T09:02:01.066Z,275
2017-04-13T09:03:09.954Z,320
2017-04-13T09:04:19.094Z,300
2017-04-13T09:05:28.319Z,330
2017-04-13T09:06:37.257Z,350
2017-04-13T09:07:46.150Z,360
2017-04-13T09:08:55.039Z,415
2017-04-13T09:10:03.990Z,365
2017-04-13T09:11:12.881Z,330
2017-04-13T09:12:21.773Z,330
2017-04-13T09:13:30.663Z,365
2017-04-13T09:14:39.560Z,380
2017-04-13T09:15:48.498Z,405
2017-04-13T09:16:57.385Z,410
2017-04-13T09:18:06.272Z,445
2017-04-13T09:19:15.486Z,435
2017-04-13T09:20:24.379Z,410
2017-04-13T09:21:33.968Z,405
2017-04-13T09:22:42.862Z,410
2017-04-13T09:23:51.751Z,415
2017-04-13T09:25:00.967Z,450
2017-04-13T09:26:09.857Z,430
2017-04-13T09:27:19.175Z,520
2017-04-13T09:28:28.065Z,470
2017-04-13T09:29:36.950Z,380
2017-04-13T09:30:45.841Z,420
2017-04-13T09:31:54.726Z,445
2017-04-13T09:33:03.767Z,295
2017-04-13T09:34:12.661Z,245
2017-04-13T09:35:21.883Z,230
2017-04-13T09:36:31.097Z,230
2017-04-13T09:37:40.312Z,270
2017-04-13T09:38:49.252Z,280
2017-04-13T09:39:58.141Z,290
2017-04-13T09:41:07.038Z,295
2017-04-13T09:42:16.263Z,300
2017-04-13T09:43:25.156Z,335
2017-04-13T09:44:34.203Z,395
2017-04-13T09:45:43.417Z,530
2017-04-13T09:46:52.633Z,590
2017-04-13T09:48:01.526Z,420
2017-04-13T09:49:10.418Z,300
2017-04-13T09:50:19.357Z,250
2017-04-13T09:51:28.255Z,250
2017-04-13T09:52:37.146Z,305
2017-04-13T09:53:46.042Z,340
2017-04-13T09:54:54.940Z,250
2017-04-13T09:56:03.829Z,225
2017-04-13T09:57:12.723Z,235
2017-04-13T09:58:21.937Z,275
2017-04-13T09:59:31.151Z,400
2017-04-13T10:00:40.038Z,490
2017-04-13T10:01:48.980Z,505
2017-04-13T10:02:57.867Z,465
2017-04-13T10:04:06.763Z,385
2017-04-13T10:05:15.652Z,335
2017-04-13T10:06:24.540Z,310
2017-04-13T10:07:33.862Z,310
2017-04-13T10:08:42.793Z,295
2017-04-13T10:09:51.682Z,310
2017-04-13T10:11:00.569Z,315
2017-04-13T10:12:09.790Z,310
2017-04-13T10:13:19.210Z,330
2017-04-13T10:14:28.096Z,345
2017-04-13T10:15:37.313Z,360
2017-04-13T10:16:46.852Z,365
2017-04-13T10:17:55.741Z,430
2017-04-13T10:19:05.108Z,570
2017-04-13T10:20:13.999Z,545
2017-04-13T10:21:22.891Z,475
2017-04-13T10:22:31.840Z,500
2017-04-13T10:23:40.743Z,495
2017-04-13T10:24:49.784Z,505
2017-04-13T10:25:58.672Z,460
2017-04-13T10:27:07.568Z,375
2017-04-13T10:28:16.460Z,335
2017-04-13T10:29:25.350Z,330
2017-04-13T10:30:34.818Z,360
2017-04-13T10:31:43.701Z,370
2017-04-13T10:32:52.912Z,410
2017-04-13T10:34:01.802Z,465
2017-04-13T10:35:11.018Z,535
2017-04-13T10:36:20.021Z,545
2017-04-13T10:37:28.907Z,550
2017-04-13T10:38:37.863Z,495
2017-04-13T10:39:47.078Z,485
2017-04-13T10:40:55.967Z,500
2017-04-13T10:42:05.335Z,380
2017-04-13T10:43:14.554Z,345
2017-04-13T10:44:23.449Z,335
2017-04-13T10:45:32.347Z,360
2017-04-13T10:46:41.237Z,350
2017-04-13T10:47:50.273Z,360
2017-04-13T10:48:59.167Z,385
2017-04-13T10:50:08.378Z,420
2017-04-13T10:51:17.282Z,420
2017-04-13T10:52:26.169Z,400
2017-04-13T10:53:35.311Z,455
2017-04-13T10:54:44.196Z,515
2017-04-13T10:55:53.412Z,560
2017-04-13T10:57:02.952Z,570
2017-04-13T10:58:11.845Z,620
2017-04-13T10:59:21.107Z,590
2017-04-13T11:00:29.999Z,355
2017-04-13T11:01:38.888Z,310
2017-04-13T11:02:48.098Z,265
2017-04-13T11:03:56.990Z,295
2017-04-13T11:05:06.308Z,390
2017-04-13T11:06:15.195Z,420
2017-04-13T11:07:24.555Z,440
2017-04-13T11:08:33.445Z,490
2017-04-13T11:09:42.334Z,625
2017-04-13T11:10:51.428Z,760
2017-04-13T11:12:00.318Z,665
2017-04-13T11:13:09.538Z,465
2017-04-13T11:14:18.426Z,300
2017-04-13T11:15:27.315Z,245
2017-04-13T11:16:36.362Z,205
2017-04-13T11:17:45.293Z,205
2017-04-13T11:18:54.220Z,220
2017-04-13T11:20:03.435Z,245
2017-04-13T11:21:12.647Z,215
2017-04-13T11:22:22.013Z,220
2017-04-13T11:23:30.903Z,245
2017-04-13T11:24:39.790Z,280
2017-04-13T11:25:48.680Z,320
2017-04-13T11:26:57.618Z,340
2017-04-13T11:28:06.885Z,335
2017-04-13T11:29:15.786Z,380
2017-04-13T11:30:24.675Z,440
2017-04-13T11:31:33.566Z,450
2017-04-13T11:32:42.455Z,475
2017-04-13T11:33:51.643Z,425
2017-04-13T11:35:00.532Z,335
2017-04-13T11:36:09.430Z,265
2017-04-13T11:37:18.642Z,180
2017-04-13T11:38:27.529Z,155
2017-04-13T11:39:36.567Z,145
2017-04-13T11:40:45.457Z,165
2017-04-13T11:41:54.352Z,220
2017-04-13T11:43:03.242Z,280
2017-04-13T11:44:12.136Z,385
2017-04-13T11:45:21.190Z,430
2017-04-13T11:46:30.409Z,420
2017-04-13T11:47:39.298Z,445
2017-04-13T11:48:48.186Z,550
2017-04-13T11:49:57.078Z,605
2017-04-13T11:51:06.016Z,575
2017-04-13T11:52:15.235Z,545
2017-04-13T11:53:24.124Z,525
2017-04-13T11:54:33.339Z,515
2017-04-13T11:55:42.229Z,1205
2017-04-13T11:56:51.643Z,2840
2017-04-13T11:58:00.859Z,3450
2017-04-13T11:59:10.413Z,3550
2017-04-13T12:00:19.308Z,1540
2017-04-13T12:01:28.199Z,425
2017-04-13T12:02:37.415Z,290
2017-04-13T12:03:47.282Z,265
2017-04-13T12:04:56.223Z,260
2017-04-13T12:06:05.111Z,255
2017-04-13T12:07:14.003Z,205
2017-04-13T12:08:23.046Z,165
2017-04-13T12:09:31.945Z,170
2017-04-13T12:10:40.841Z,190
2017-04-13T12:11:50.711Z,210
2017-04-13T12:12:59.601Z,200
2017-04-13T12:14:08.963Z,165
2017-04-13T12:15:18.185Z,155
2017-04-13T12:16:27.080Z,155
2017-04-13T12:17:36.306Z,185
2017-04-13T12:18:45.516Z,230
2017-04-13T12:19:54.760Z,285
2017-04-13T12:21:03.651Z,355
2017-04-13T12:22:12.542Z,440
2017-04-13T12:23:21.757Z,550
2017-04-13T12:24:30.649Z,570
2017-04-13T12:25:40.014Z,570
2017-04-13T12:26:48.907Z,495
2017-04-13T12:27:57.797Z,470
2017-04-13T12:29:06.741Z,545
2017-04-13T12:30:15.628Z,625
2017-04-13T12:31:24.998Z,700
2017-04-13T12:32:33.887Z,750
2017-04-13T12:33:43.107Z,675
2017-04-13T12:34:52.317Z,555
2017-04-13T12:36:01.206Z,475
2017-04-13T12:37:10.570Z,405
2017-04-13T12:38:19.463Z,330
2017-04-13T12:39:28.354Z,290
2017-04-13T12:40:37.247Z,300
2017-04-13T12:41:46.465Z,430
2017-04-13T12:42:55.604Z,580
2017-04-13T12:44:04.530Z,520
2017-04-13T12:45:13.745Z,435
2017-04-13T12:46:22.959Z,340
2017-04-13T12:47:32.172Z,320
2017-04-13T12:48:41.308Z,320
2017-04-13T12:49:50.203Z,290
2017-04-13T12:50:59.094Z,305
2017-04-13T12:52:07.984Z,365
2017-04-13T12:53:16.874Z,420
2017-04-13T12:54:26.019Z,615
2017-04-13T12:55:35.559Z,950
2017-04-13T12:56:44.450Z,970
2017-04-13T12:57:53.659Z,910
2017-04-13T12:59:02.549Z,805
2017-04-13T13:00:12.437Z,865
2017-04-13T13:01:21.322Z,945
2017-04-13T13:02:30.211Z,1195
2017-04-13T13:03:39.118Z,1120
2017-04-13T13:04:48.008Z,1325
2017-04-13T13:05:57.059Z,1205
2017-04-13T13:07:05.948Z,1080
2017-04-13T13:08:14.844Z,1770
2017-04-13T13:09:23.732Z,2315
2017-04-13T13:10:32.621Z,1595
2017-04-13T13:11:41.664Z,1160
2017-04-13T13:12:50.557Z,2440
2017-04-13T13:13:59.773Z,2975
2017-04-13T13:15:08.666Z,770
2017-04-13T13:16:17.559Z,730
2017-04-13T13:17:26.650Z,865
2017-04-13T13:18:35.542Z,695
2017-04-13T13:19:44.437Z,1620
2017-04-13T13:20:53.336Z,1960
2017-04-13T13:22:02.234Z,2880
2017-04-13T13:23:11.230Z,2430
2017-04-13T13:24:20.129Z,2065
2017-04-13T13:25:29.029Z,1010
2017-04-13T13:26:38.590Z,710
2017-04-13T13:27:47.807Z,745
2017-04-13T13:28:56.849Z,1300
2017-04-13T13:30:05.743Z,705
2017-04-13T13:31:14.642Z,705
2017-04-13T13:32:23.864Z,825
2017-04-13T13:33:32.761Z,870
2017-04-13T13:34:41.803Z,1125
2017-04-13T13:35:50.701Z,1790
2017-04-13T13:36:59.602Z,2530
2017-04-13T13:38:08.494Z,2560
2017-04-13T13:39:17.385Z,2830
2017-04-13T13:40:26.683Z,2885
2017-04-13T13:41:35.916Z,2695
2017-04-13T13:42:45.131Z,1930
2017-04-13T13:43:54.358Z,885
2017-04-13T13:45:03.576Z,1215
2017-04-13T13:46:12.950Z,2115
2017-04-13T13:47:21.846Z,945
2017-04-13T13:48:30.753Z,665
2017-04-13T13:49:39.671Z,715
2017-04-13T13:50:48.891Z,530
2017-04-13T13:51:58.161Z,415
2017-04-13T13:53:07.053Z,415
2017-04-13T13:54:16.600Z,415
2017-04-13T13:55:25.819Z,480
2017-04-13T13:56:34.717Z,675
2017-04-13T13:57:44.013Z,970
2017-04-13T13:58:52.903Z,915
2017-04-13T14:00:01.797Z,840
2017-04-13T14:01:11.012Z,1015
2017-04-13T14:02:19.907Z,3045
2017-04-13T14:03:28.953Z,3120
2017-04-13T14:04:37.889Z,3470
2017-04-13T14:05:46.792Z,3105
2017-04-13T14:06:55.688Z,2460
2017-04-13T14:08:04.597Z,2170
2017-04-13T14:09:13.688Z,3100
2017-04-13T14:10:22.919Z,3165
2017-04-13T14:11:31.828Z,2145
2017-04-13T14:12:40.723Z,1310
2017-04-13T14:13:49.618Z,1155
2017-04-13T14:14:58.662Z,1445
2017-04-13T14:16:07.561Z,1685
2017-04-13T14:17:17.115Z,3210
2017-04-13T14:18:26.020Z,3415
2017-04-13T14:19:34.913Z,2215
2017-04-13T14:20:44.064Z,2955
2017-04-13T14:21:52.967Z,1845
2017-04-13T14:23:01.891Z,1220
2017-04-13T14:24:11.121Z,1335
2017-04-13T14:25:20.369Z,865
2017-04-13T14:26:29.375Z,845
2017-04-13T14:27:38.607Z,1395
2017-04-13T14:28:47.507Z,620
2017-04-13T14:29:56.456Z,570
2017-04-13T14:31:05.354Z,670
2017-04-13T14:32:14.251Z,940
2017-04-13T14:33:23.475Z,1020
2017-04-13T14:34:33.033Z,1010
2017-04-13T14:35:41.931Z,840
2017-04-13T14:36:51.473Z,880
2017-04-13T14:38:01.076Z,980
2017-04-13T14:39:09.973Z,2220
2017-04-13T14:40:18.872Z,1285
2017-04-13T14:41:27.771Z,1085
2017-04-13T14:42:36.662Z,1055
2017-04-13T14:43:45.665Z,2805
2017-04-13T14:44:54.556Z,1235
2017-04-13T14:46:03.457Z,1490
2017-04-13T14:47:12.408Z,1270
2017-04-13T14:48:21.681Z,1040
2017-04-13T14:49:30.828Z,1670
2017-04-13T14:50:39.721Z,2765
2017-04-13T14:51:48.624Z,2375
2017-04-13T14:52:57.520Z,2635
2017-04-13T14:54:06.413Z,1455
2017-04-13T14:55:15.986Z,2325
2017-04-13T14:56:24.884Z,785
2017-04-13T14:57:33.786Z,2245
2017-04-13T14:58:42.683Z,1985
2017-04-13T14:59:51.581Z,1640
2017-04-13T15:01:01.056Z,1825
2017-04-13T15:02:10.291Z,565
2017-04-13T15:03:19.836Z,2015
2017-04-13T15:04:28.731Z,460
2017-04-13T15:05:37.628Z,420
2017-04-13T15:06:46.934Z,455
2017-04-13T15:07:55.823Z,910
2017-04-13T15:09:04.720Z,495
2017-04-13T15:10:13.612Z,405
2017-04-13T15:11:22.506Z,345
2017-04-13T15:12:31.976Z,395
2017-04-13T15:13:41.520Z,2480
2017-04-13T15:14:50.412Z,465
2017-04-13T15:15:59.304Z,360
2017-04-13T15:17:08.573Z,290
2017-04-13T15:18:17.614Z,955
2017-04-13T15:19:26.509Z,300
2017-04-13T15:20:35.732Z,320
2017-04-13T15:21:44.626Z,380
2017-04-13T15:22:53.562Z,375
2017-04-13T15:24:02.502Z,255
2017-04-13T15:25:11.399Z,175
2017-04-13T15:26:20.291Z,145
2017-04-13T15:27:29.190Z,130
2017-04-13T15:28:38.730Z,125
2017-04-13T15:29:48.197Z,130
2017-04-13T15:30:57.086Z,150
2017-04-13T15:32:05.979Z,170
2017-04-13T15:33:14.871Z,185
2017-04-13T15:34:23.766Z,200
2017-04-13T15:35:32.956Z,230
2017-04-13T15:36:41.847Z,305
2017-04-13T15:37:50.780Z,475
2017-04-13T15:38:59.993Z,600
2017-04-13T15:40:08.891Z,1645
2017-04-13T15:41:17.930Z,1490
2017-04-13T15:42:26.824Z,1905
2017-04-13T15:43:35.715Z,1180
2017-04-13T15:44:44.603Z,2155
2017-04-13T15:45:53.492Z,1910
2017-04-13T15:47:02.532Z,1850
2017-04-13T15:48:11.430Z,585
2017-04-13T15:49:20.645Z,460
2017-04-13T15:50:29.537Z,410
2017-04-13T15:51:38.765Z,380
2017-04-13T15:52:47.905Z,300
2017-04-13T15:53:56.798Z,260
2017-04-13T15:55:06.021Z,255
2017-04-13T15:56:14.921Z,295
2017-04-13T15:57:24.136Z,325
2017-04-13T15:58:33.177Z,375
2017-04-13T15:59:42.073Z,265
2017-04-13T16:00:50.978Z,210
2017-04-13T16:01:59.877Z,175
2017-04-13T16:03:08.773Z,145
2017-04-13T16:04:18.519Z,110
2017-04-13T16:05:27.409Z,95
2017-04-13T16:06:36.302Z,90
2017-04-13T16:07:45.189Z,100
2017-04-13T16:08:54.405Z,95